sensor_id;sensor_type;location;lat;lon;timestamp;pressure;altitude;pressure_sealevel;temperature;humidity
28606;BME280;46498;49.968;7.754;2023-04-08T00:03:52;97428.00;;;6.42;100.00
28606;BME280;46498;49.968;7.754;2023-04-08T00:08:53;97435.00;;;6.31;100.00
28606;BME280;46498;49.968;7.754;2023-04-08T00:13:54;97437.00;;;6.34;100.00
28606;BME280;46498;49.968;7.754;2023-04-08T00:18:55;97437.00;;;6.33;100.00
28606;BME280;46498;49.968;7.754;2023-04-08T00:23:56;97431.00;;;6.37;100.00
28606;BME280;46498;49.968;7.754;2023-04-08T00:28:57;97429.00;;;6.47;100.00
28606;BME280;46498;49.968;7.754;2023-04-08T00:33:58;97436.00;;;6.42;100.00
28606;BME280;46498;49.968;7.754;2023-04-08T00:38:59;97421.00;;;6.31;100.00
28606;BME280;46498;49.968;7.754;2023-04-08T00:43:59;97430.00;;;6.40;100.00
28606;BME280;46498;49.968;7.754;2023-04-08T00:49:01;97428.00;;;6.35;100.00
28606;BME280;46498;49.968;7.754;2023-04-08T00:54:03;97425.00;;;6.30;100.00
28606;BME280;46498;49.968;7.754;2023-04-08T00:59:07;97432.00;;;6.26;100.00
28606;BME280;46498;49.968;7.754;2023-04-08T01:09:37;97440.00;;;6.21;100.00
28606;BME280;46498;49.968;7.754;2023-04-08T01:14:41;97440.00;;;6.24;100.00
28606;BME280;46498;49.968;7.754;2023-04-08T01:19:44;97433.00;;;6.25;100.00
28606;BME280;46498;49.968;7.754;2023-04-08T01:24:49;97433.00;;;6.27;100.00
28606;BME280;46498;49.968;7.754;2023-04-08T01:29:51;97434.00;;;6.29;100.00
28606;BME280;46498;49.968;7.754;2023-04-08T01:34:53;97443.00;;;6.25;100.00
28606;BME280;46498;49.968;7.754;2023-04-08T01:39:56;97442.00;;;6.20;100.00
28606;BME280;46498;49.968;7.754;2023-04-08T01:44:59;97439.00;;;6.20;100.00
28606;BME280;46498;49.968;7.754;2023-04-08T01:50:01;97432.00;;;6.14;100.00
28606;BME280;46498;49.968;7.754;2023-04-08T01:55:03;97432.00;;;6.12;100.00
28606;BME280;46498;49.968;7.754;2023-04-08T02:00:07;97430.00;;;6.06;100.00
28606;BME280;46498;49.968;7.754;2023-04-08T02:05:21;97430.00;;;6.09;100.00
28606;BME280;46498;49.968;7.754;2023-04-08T02:10:22;97438.00;;;6.15;100.00
28606;BME280;46498;49.968;7.754;2023-04-08T02:15:24;97444.00;;;6.11;100.00
28606;BME280;46498;49.968;7.754;2023-04-08T02:20:46;97446.00;;;6.04;100.00
28606;BME280;46498;49.968;7.754;2023-04-08T02:25:52;97442.00;;;5.98;100.00
28606;BME280;46498;49.968;7.754;2023-04-08T02:30:56;97446.00;;;6.02;100.00
28606;BME280;46498;49.968;7.754;2023-04-08T02:36:01;97441.00;;;6.02;100.00
28606;BME280;46498;49.968;7.754;2023-04-08T02:41:03;97447.00;;;5.93;100.00
28606;BME280;46498;49.968;7.754;2023-04-08T02:46:04;97446.00;;;5.88;100.00
28606;BME280;46498;49.968;7.754;2023-04-08T02:51:05;97453.00;;;5.98;100.00
28606;BME280;46498;49.968;7.754;2023-04-08T02:56:09;97448.00;;;5.96;100.00
28606;BME280;46498;49.968;7.754;2023-04-08T03:01:10;97456.00;;;5.88;100.00
28606;BME280;46498;49.968;7.754;2023-04-08T03:06:11;97452.00;;;5.89;100.00
28606;BME280;46498;49.968;7.754;2023-04-08T03:11:12;97464.00;;;5.93;100.00
28606;BME280;46498;49.968;7.754;2023-04-08T03:16:13;97464.00;;;5.93;100.00
28606;BME280;46498;49.968;7.754;2023-04-08T03:21:13;97465.00;;;5.97;100.00
28606;BME280;46498;49.968;7.754;2023-04-08T03:26:14;97461.00;;;5.98;100.00
28606;BME280;46498;49.968;7.754;2023-04-08T03:31:15;97462.00;;;5.92;100.00
28606;BME280;46498;49.968;7.754;2023-04-08T03:36:16;97466.00;;;5.89;100.00
28606;BME280;46498;49.968;7.754;2023-04-08T03:41:17;97470.00;;;5.81;100.00
28606;BME280;46498;49.968;7.754;2023-04-08T03:46:18;97462.00;;;5.87;100.00
28606;BME280;46498;49.968;7.754;2023-04-08T03:51:19;97465.00;;;5.76;100.00
28606;BME280;46498;49.968;7.754;2023-04-08T03:56:19;97459.00;;;5.74;100.00
28606;BME280;46498;49.968;7.754;2023-04-08T04:01:21;97468.00;;;5.81;100.00
28606;BME280;46498;49.968;7.754;2023-04-08T04:06:22;97462.00;;;5.90;100.00
28606;BME280;46498;49.968;7.754;2023-04-08T04:11:23;97460.00;;;5.82;100.00
28606;BME280;46498;49.968;7.754;2023-04-08T04:16:24;97462.00;;;5.83;100.00
28606;BME280;46498;49.968;7.754;2023-04-08T04:21:25;97462.00;;;5.78;100.00
28606;BME280;46498;49.968;7.754;2023-04-08T04:26:26;97470.00;;;5.74;100.00
28606;BME280;46498;49.968;7.754;2023-04-08T04:31:27;97464.00;;;5.74;100.00
28606;BME280;46498;49.968;7.754;2023-04-08T04:36:29;97473.00;;;5.71;100.00
28606;BME280;46498;49.968;7.754;2023-04-08T04:41:31;97474.00;;;5.75;100.00
28606;BME280;46498;49.968;7.754;2023-04-08T04:46:31;97473.00;;;5.74;100.00
28606;BME280;46498;49.968;7.754;2023-04-08T04:51:32;97475.00;;;5.62;100.00
28606;BME280;46498;49.968;7.754;2023-04-08T04:56:33;97480.00;;;5.65;100.00
28606;BME280;46498;49.968;7.754;2023-04-08T05:01:35;97485.00;;;5.65;100.00
28606;BME280;46498;49.968;7.754;2023-04-08T05:06:36;97480.00;;;5.63;100.00
28606;BME280;46498;49.968;7.754;2023-04-08T05:11:36;97488.00;;;5.60;100.00
28606;BME280;46498;49.968;7.754;2023-04-08T05:16:37;97483.00;;;5.53;100.00
28606;BME280;46498;49.968;7.754;2023-04-08T05:21:38;97487.00;;;5.47;100.00
28606;BME280;46498;49.968;7.754;2023-04-08T05:26:40;97488.00;;;5.49;100.00
28606;BME280;46498;49.968;7.754;2023-04-08T05:31:41;97486.00;;;5.59;100.00
28606;BME280;46498;49.968;7.754;2023-04-08T05:36:43;97492.00;;;5.57;100.00
28606;BME280;46498;49.968;7.754;2023-04-08T05:41:44;97506.00;;;5.76;100.00
28606;BME280;46498;49.968;7.754;2023-04-08T05:46:45;97496.00;;;5.94;100.00
28606;BME280;46498;49.968;7.754;2023-04-08T05:51:46;97513.00;;;6.31;100.00
28606;BME280;46498;49.968;7.754;2023-04-08T05:56:47;97517.00;;;6.35;100.00
28606;BME280;46498;49.968;7.754;2023-04-08T06:01:48;97512.00;;;6.55;100.00
28606;BME280;46498;49.968;7.754;2023-04-08T06:06:49;97516.00;;;6.69;100.00
28606;BME280;46498;49.968;7.754;2023-04-08T06:11:50;97510.00;;;6.93;100.00
28606;BME280;46498;49.968;7.754;2023-04-08T06:16:51;97516.00;;;6.98;100.00
28606;BME280;46498;49.968;7.754;2023-04-08T06:21:54;97519.00;;;7.20;100.00
28606;BME280;46498;49.968;7.754;2023-04-08T06:26:58;97533.00;;;7.28;100.00
28606;BME280;46498;49.968;7.754;2023-04-08T06:31:59;97528.00;;;7.41;100.00
28606;BME280;46498;49.968;7.754;2023-04-08T06:37:01;97528.00;;;7.61;100.00
28606;BME280;46498;49.968;7.754;2023-04-08T06:42:02;97540.00;;;7.68;100.00
28606;BME280;46498;49.968;7.754;2023-04-08T06:47:10;97533.00;;;7.79;100.00
28606;BME280;46498;49.968;7.754;2023-04-08T06:52:11;97546.00;;;7.85;100.00
28606;BME280;46498;49.968;7.754;2023-04-08T06:57:15;97552.00;;;7.91;100.00
28606;BME280;46498;49.968;7.754;2023-04-08T07:02:16;97551.00;;;7.95;100.00
28606;BME280;46498;49.968;7.754;2023-04-08T07:07:17;97556.00;;;8.00;100.00
28606;BME280;46498;49.968;7.754;2023-04-08T07:12:18;97568.00;;;8.20;100.00
28606;BME280;46498;49.968;7.754;2023-04-08T07:17:19;97576.00;;;8.13;100.00
28606;BME280;46498;49.968;7.754;2023-04-08T07:22:19;97583.00;;;8.14;100.00
28606;BME280;46498;49.968;7.754;2023-04-08T07:27:21;97588.00;;;8.24;100.00
28606;BME280;46498;49.968;7.754;2023-04-08T07:32:22;97583.00;;;8.24;100.00
28606;BME280;46498;49.968;7.754;2023-04-08T07:37:23;97594.00;;;8.76;100.00
28606;BME280;46498;49.968;7.754;2023-04-08T07:42:24;97596.00;;;8.50;100.00
28606;BME280;46498;49.968;7.754;2023-04-08T07:47:25;97598.00;;;8.34;100.00
28606;BME280;46498;49.968;7.754;2023-04-08T07:52:27;97598.00;;;8.25;100.00
28606;BME280;46498;49.968;7.754;2023-04-08T07:57:29;97606.00;;;8.49;100.00
28606;BME280;46498;49.968;7.754;2023-04-08T08:02:30;97618.00;;;8.61;100.00
28606;BME280;46498;49.968;7.754;2023-04-08T08:07:31;97612.00;;;8.43;100.00
28606;BME280;46498;49.968;7.754;2023-04-08T08:12:32;97618.00;;;8.54;100.00
28606;BME280;46498;49.968;7.754;2023-04-08T08:17:33;97620.00;;;8.43;100.00
28606;BME280;46498;49.968;7.754;2023-04-08T08:22:34;97622.00;;;8.46;100.00
28606;BME280;46498;49.968;7.754;2023-04-08T08:27:44;97623.00;;;8.47;100.00
28606;BME280;46498;49.968;7.754;2023-04-08T08:32:45;97639.00;;;8.60;100.00
28606;BME280;46498;49.968;7.754;2023-04-08T08:37:46;97650.00;;;8.88;100.00
28606;BME280;46498;49.968;7.754;2023-04-08T08:42:51;97641.00;;;9.08;100.00
28606;BME280;46498;49.968;7.754;2023-04-08T08:47:52;97649.00;;;8.70;100.00
28606;BME280;46498;49.968;7.754;2023-04-08T08:52:53;97655.00;;;8.86;100.00
28606;BME280;46498;49.968;7.754;2023-04-08T08:57:54;97667.00;;;9.30;100.00
28606;BME280;46498;49.968;7.754;2023-04-08T09:02:55;97663.00;;;9.26;100.00
28606;BME280;46498;49.968;7.754;2023-04-08T09:07:57;97672.00;;;9.06;97.99
28606;BME280;46498;49.968;7.754;2023-04-08T09:12:58;97685.00;;;9.33;98.28
28606;BME280;46498;49.968;7.754;2023-04-08T09:18:00;97685.00;;;9.48;97.10
28606;BME280;46498;49.968;7.754;2023-04-08T09:23:01;97695.00;;;9.44;94.27
28606;BME280;46498;49.968;7.754;2023-04-08T09:28:02;97693.00;;;9.36;94.89
28606;BME280;46498;49.968;7.754;2023-04-08T09:33:03;97697.00;;;9.37;95.68
28606;BME280;46498;49.968;7.754;2023-04-08T09:38:06;97694.00;;;8.85;94.02
28606;BME280;46498;49.968;7.754;2023-04-08T09:43:08;97694.00;;;8.85;93.13
28606;BME280;46498;49.968;7.754;2023-04-08T09:48:16;97703.00;;;8.84;93.96
28606;BME280;46498;49.968;7.754;2023-04-08T09:53:25;97707.00;;;8.95;96.89
28606;BME280;46498;49.968;7.754;2023-04-08T09:58:38;97702.00;;;8.94;94.44
28606;BME280;46498;49.968;7.754;2023-04-08T10:03:47;97710.00;;;8.85;97.02
28606;BME280;46498;49.968;7.754;2023-04-08T10:08:48;97711.00;;;8.80;97.22
28606;BME280;46498;49.968;7.754;2023-04-08T10:13:50;97712.00;;;8.67;95.46
28606;BME280;46498;49.968;7.754;2023-04-08T10:18:53;97711.00;;;8.61;95.96
28606;BME280;46498;49.968;7.754;2023-04-08T10:23:57;97719.00;;;8.60;98.11
28606;BME280;46498;49.968;7.754;2023-04-08T10:32:31;97706.00;;;8.65;96.09
28606;BME280;46498;49.968;7.754;2023-04-08T10:37:40;97708.00;;;8.73;96.08
28606;BME280;46498;49.968;7.754;2023-04-08T10:42:41;97707.00;;;8.81;93.24
28606;BME280;46498;49.968;7.754;2023-04-08T10:47:42;97700.00;;;8.73;94.99
28606;BME280;46498;49.968;7.754;2023-04-08T10:52:53;97703.00;;;8.77;92.91
28606;BME280;46498;49.968;7.754;2023-04-08T10:57:54;97699.00;;;8.84;92.92
28606;BME280;46498;49.968;7.754;2023-04-08T11:03:02;97693.00;;;8.76;92.76
28606;BME280;46498;49.968;7.754;2023-04-08T11:08:04;97706.00;;;8.70;88.04
28606;BME280;46498;49.968;7.754;2023-04-08T11:13:07;97701.00;;;8.64;88.68
28606;BME280;46498;49.968;7.754;2023-04-08T11:18:10;97703.00;;;8.83;89.88
28606;BME280;46498;49.968;7.754;2023-04-08T11:23:12;97697.00;;;8.99;90.51
28606;BME280;46498;49.968;7.754;2023-04-08T11:28:13;97683.00;;;9.23;90.77
28606;BME280;46498;49.968;7.754;2023-04-08T11:33:17;97689.00;;;9.34;88.76
28606;BME280;46498;49.968;7.754;2023-04-08T11:38:21;97692.00;;;9.60;91.39
28606;BME280;46498;49.968;7.754;2023-04-08T11:43:23;97679.00;;;9.99;84.46
28606;BME280;46498;49.968;7.754;2023-04-08T11:48:33;97686.00;;;9.98;81.38
28606;BME280;46498;49.968;7.754;2023-04-08T11:53:35;97689.00;;;9.65;82.82
28606;BME280;46498;49.968;7.754;2023-04-08T11:58:38;97692.00;;;9.74;80.73
28606;BME280;46498;49.968;7.754;2023-04-08T12:03:55;97690.00;;;9.55;77.54
28606;BME280;46498;49.968;7.754;2023-04-08T12:08:57;97686.00;;;9.49;74.97
28606;BME280;46498;49.968;7.754;2023-04-08T12:13:59;97686.00;;;9.18;80.08
28606;BME280;46498;49.968;7.754;2023-04-08T12:19:00;97690.00;;;9.31;79.98
28606;BME280;46498;49.968;7.754;2023-04-08T12:24:01;97684.00;;;9.41;77.97
28606;BME280;46498;49.968;7.754;2023-04-08T12:29:02;97688.00;;;9.48;77.62
28606;BME280;46498;49.968;7.754;2023-04-08T12:34:03;97688.00;;;9.43;79.16
28606;BME280;46498;49.968;7.754;2023-04-08T12:39:04;97685.00;;;9.19;79.92
28606;BME280;46498;49.968;7.754;2023-04-08T12:44:05;97674.00;;;9.35;79.38
28606;BME280;46498;49.968;7.754;2023-04-08T12:49:06;97671.00;;;9.39;79.08
28606;BME280;46498;49.968;7.754;2023-04-08T12:54:07;97672.00;;;9.53;75.88
28606;BME280;46498;49.968;7.754;2023-04-08T12:59:08;97671.00;;;9.64;78.70
28606;BME280;46498;49.968;7.754;2023-04-08T13:04:09;97676.00;;;9.81;75.82
28606;BME280;46498;49.968;7.754;2023-04-08T13:09:10;97676.00;;;10.02;76.97
28606;BME280;46498;49.968;7.754;2023-04-08T13:14:11;97670.00;;;10.14;76.40
28606;BME280;46498;49.968;7.754;2023-04-08T13:19:13;97665.00;;;10.40;70.06
28606;BME280;46498;49.968;7.754;2023-04-08T13:24:14;97674.00;;;10.39;72.60
28606;BME280;46498;49.968;7.754;2023-04-08T13:29:15;97673.00;;;10.42;69.69
28606;BME280;46498;49.968;7.754;2023-04-08T13:34:16;97667.00;;;10.34;70.78
28606;BME280;46498;49.968;7.754;2023-04-08T13:39:19;97673.00;;;10.66;70.68
28606;BME280;46498;49.968;7.754;2023-04-08T13:44:20;97675.00;;;10.78;69.70
28606;BME280;46498;49.968;7.754;2023-04-08T13:49:21;97688.00;;;11.14;72.31
28606;BME280;46498;49.968;7.754;2023-04-08T13:54:22;97686.00;;;11.08;70.97
28606;BME280;46498;49.968;7.754;2023-04-08T13:59:23;97684.00;;;11.02;71.94
28606;BME280;46498;49.968;7.754;2023-04-08T14:04:24;97689.00;;;10.90;70.37
28606;BME280;46498;49.968;7.754;2023-04-08T14:09:25;97678.00;;;10.66;76.00
28606;BME280;46498;49.968;7.754;2023-04-08T14:14:26;97677.00;;;10.65;75.66
28606;BME280;46498;49.968;7.754;2023-04-08T14:19:27;97678.00;;;10.73;76.80
28606;BME280;46498;49.968;7.754;2023-04-08T14:24:29;97691.00;;;10.93;77.45
28606;BME280;46498;49.968;7.754;2023-04-08T14:29:30;97690.00;;;10.60;74.35
28606;BME280;46498;49.968;7.754;2023-04-08T14:34:31;97686.00;;;10.50;78.20
28606;BME280;46498;49.968;7.754;2023-04-08T14:39:33;97683.00;;;10.99;78.43
28606;BME280;46498;49.968;7.754;2023-04-08T14:44:36;97676.00;;;11.22;78.04
28606;BME280;46498;49.968;7.754;2023-04-08T14:49:37;97676.00;;;11.03;75.83
28606;BME280;46498;49.968;7.754;2023-04-08T14:54:38;97675.00;;;10.95;75.54
28606;BME280;46498;49.968;7.754;2023-04-08T14:59:39;97679.00;;;11.01;76.28
28606;BME280;46498;49.968;7.754;2023-04-08T15:04:43;97678.00;;;10.95;75.60
28606;BME280;46498;49.968;7.754;2023-04-08T15:09:44;97674.00;;;10.88;75.67
28606;BME280;46498;49.968;7.754;2023-04-08T15:14:44;97672.00;;;10.58;76.13
28606;BME280;46498;49.968;7.754;2023-04-08T15:19:45;97677.00;;;10.11;80.25
28606;BME280;46498;49.968;7.754;2023-04-08T15:24:46;97677.00;;;10.65;80.00
28606;BME280;46498;49.968;7.754;2023-04-08T15:29:48;97686.00;;;10.48;80.81
28606;BME280;46498;49.968;7.754;2023-04-08T15:34:51;97686.00;;;10.57;82.16
28606;BME280;46498;49.968;7.754;2023-04-08T15:39:52;97696.00;;;10.90;79.81
28606;BME280;46498;49.968;7.754;2023-04-08T15:44:53;97691.00;;;10.47;83.02
28606;BME280;46498;49.968;7.754;2023-04-08T15:49:57;97692.00;;;10.31;83.28
28606;BME280;46498;49.968;7.754;2023-04-08T15:54:59;97695.00;;;10.12;84.29
28606;BME280;46498;49.968;7.754;2023-04-08T16:00:06;97701.00;;;9.94;86.76
28606;BME280;46498;49.968;7.754;2023-04-08T16:05:12;97699.00;;;9.82;88.21
28606;BME280;46498;49.968;7.754;2023-04-08T16:10:13;97704.00;;;9.84;86.83
28606;BME280;46498;49.968;7.754;2023-04-08T16:15:14;97701.00;;;9.73;88.76
28606;BME280;46498;49.968;7.754;2023-04-08T16:20:16;97704.00;;;9.63;88.78
28606;BME280;46498;49.968;7.754;2023-04-08T16:25:20;97714.00;;;9.65;88.64
28606;BME280;46498;49.968;7.754;2023-04-08T16:30:21;97717.00;;;9.53;91.45
28606;BME280;46498;49.968;7.754;2023-04-08T16:35:22;97719.00;;;9.39;92.49
28606;BME280;46498;49.968;7.754;2023-04-08T16:40:23;97712.00;;;9.17;95.10
28606;BME280;46498;49.968;7.754;2023-04-08T16:45:27;97720.00;;;9.07;96.92
28606;BME280;46498;49.968;7.754;2023-04-08T16:50:29;97713.00;;;9.11;96.42
28606;BME280;46498;49.968;7.754;2023-04-08T16:55:31;97721.00;;;9.11;96.48
28606;BME280;46498;49.968;7.754;2023-04-08T17:00:33;97727.00;;;9.08;96.58
28606;BME280;46498;49.968;7.754;2023-04-08T17:05:34;97735.00;;;9.07;97.29
28606;BME280;46498;49.968;7.754;2023-04-08T17:10:35;97734.00;;;9.05;99.24
28606;BME280;46498;49.968;7.754;2023-04-08T17:15:36;97735.00;;;9.22;97.92
28606;BME280;46498;49.968;7.754;2023-04-08T17:20:37;97740.00;;;9.16;98.23
28606;BME280;46498;49.968;7.754;2023-04-08T17:25:38;97747.00;;;9.08;98.98
28606;BME280;46498;49.968;7.754;2023-04-08T17:30:39;97754.00;;;9.01;100.00
28606;BME280;46498;49.968;7.754;2023-04-08T17:35:40;97752.00;;;9.08;99.13
28606;BME280;46498;49.968;7.754;2023-04-08T17:40:41;97749.00;;;9.03;98.68
28606;BME280;46498;49.968;7.754;2023-04-08T17:45:42;97761.00;;;9.00;99.21
28606;BME280;46498;49.968;7.754;2023-04-08T17:50:43;97754.00;;;8.97;98.93
28606;BME280;46498;49.968;7.754;2023-04-08T17:55:44;97755.00;;;8.91;99.93
28606;BME280;46498;49.968;7.754;2023-04-08T18:00:46;97761.00;;;8.82;100.00
28606;BME280;46498;49.968;7.754;2023-04-08T18:05:47;97759.00;;;8.76;100.00
28606;BME280;46498;49.968;7.754;2023-04-08T18:10:48;97770.00;;;8.76;100.00
28606;BME280;46498;49.968;7.754;2023-04-08T18:15:49;97769.00;;;8.75;100.00
28606;BME280;46498;49.968;7.754;2023-04-08T18:20:50;97771.00;;;8.80;99.32
28606;BME280;46498;49.968;7.754;2023-04-08T18:25:51;97772.00;;;8.51;100.00
28606;BME280;46498;49.968;7.754;2023-04-08T18:30:51;97784.00;;;8.49;100.00
28606;BME280;46498;49.968;7.754;2023-04-08T18:35:52;97792.00;;;8.35;100.00
28606;BME280;46498;49.968;7.754;2023-04-08T18:40:54;97792.00;;;8.38;100.00
28606;BME280;46498;49.968;7.754;2023-04-08T18:45:55;97792.00;;;8.30;100.00
28606;BME280;46498;49.968;7.754;2023-04-08T18:50:56;97796.00;;;8.25;100.00
28606;BME280;46498;49.968;7.754;2023-04-08T18:55:57;97795.00;;;8.32;100.00
28606;BME280;46498;49.968;7.754;2023-04-08T19:00:58;97803.00;;;8.32;100.00
28606;BME280;46498;49.968;7.754;2023-04-08T19:06:03;97805.00;;;8.26;100.00
28606;BME280;46498;49.968;7.754;2023-04-08T19:11:04;97811.00;;;8.17;100.00
28606;BME280;46498;49.968;7.754;2023-04-08T19:16:06;97817.00;;;8.16;100.00
28606;BME280;46498;49.968;7.754;2023-04-08T19:21:07;97803.00;;;8.01;100.00
28606;BME280;46498;49.968;7.754;2023-04-08T19:26:08;97820.00;;;8.01;100.00
28606;BME280;46498;49.968;7.754;2023-04-08T19:31:18;97812.00;;;8.04;100.00
28606;BME280;46498;49.968;7.754;2023-04-08T19:36:20;97819.00;;;8.07;100.00
28606;BME280;46498;49.968;7.754;2023-04-08T19:41:21;97828.00;;;7.97;100.00
28606;BME280;46498;49.968;7.754;2023-04-08T19:46:22;97825.00;;;7.95;100.00
28606;BME280;46498;49.968;7.754;2023-04-08T19:51:23;97831.00;;;7.95;100.00
28606;BME280;46498;49.968;7.754;2023-04-08T19:56:27;97821.00;;;7.79;100.00
28606;BME280;46498;49.968;7.754;2023-04-08T20:01:33;97822.00;;;7.83;100.00
28606;BME280;46498;49.968;7.754;2023-04-08T20:06:36;97833.00;;;7.71;100.00
28606;BME280;46498;49.968;7.754;2023-04-08T20:11:38;97836.00;;;7.57;100.00
28606;BME280;46498;49.968;7.754;2023-04-08T20:16:41;97832.00;;;7.58;100.00
28606;BME280;46498;49.968;7.754;2023-04-08T20:21:42;97831.00;;;7.52;100.00
28606;BME280;46498;49.968;7.754;2023-04-08T20:26:43;97830.00;;;7.38;100.00
28606;BME280;46498;49.968;7.754;2023-04-08T20:31:44;97835.00;;;7.40;100.00
28606;BME280;46498;49.968;7.754;2023-04-08T20:36:45;97834.00;;;7.32;100.00
28606;BME280;46498;49.968;7.754;2023-04-08T20:41:47;97845.00;;;7.18;100.00
28606;BME280;46498;49.968;7.754;2023-04-08T20:46:48;97843.00;;;7.01;100.00
28606;BME280;46498;49.968;7.754;2023-04-08T20:51:50;97856.00;;;6.92;100.00
28606;BME280;46498;49.968;7.754;2023-04-08T20:56:51;97855.00;;;7.00;100.00
28606;BME280;46498;49.968;7.754;2023-04-08T21:01:52;97856.00;;;7.01;100.00
28606;BME280;46498;49.968;7.754;2023-04-08T21:06:54;97858.00;;;7.09;100.00
28606;BME280;46498;49.968;7.754;2023-04-08T21:11:55;97858.00;;;7.09;100.00
28606;BME280;46498;49.968;7.754;2023-04-08T21:16:56;97854.00;;;7.07;97.17
28606;BME280;46498;49.968;7.754;2023-04-08T21:21:58;97843.00;;;7.01;97.19
28606;BME280;46498;49.968;7.754;2023-04-08T21:26:58;97850.00;;;6.90;92.89
28606;BME280;46498;49.968;7.754;2023-04-08T21:31:59;97854.00;;;6.79;95.07
28606;BME280;46498;49.968;7.754;2023-04-08T21:37:03;97855.00;;;6.83;96.67
28606;BME280;46498;49.968;7.754;2023-04-08T21:42:04;97851.00;;;6.84;96.68
28606;BME280;46498;49.968;7.754;2023-04-08T21:47:05;97851.00;;;6.89;95.24
28606;BME280;46498;49.968;7.754;2023-04-08T21:52:06;97846.00;;;6.90;92.61
28606;BME280;46498;49.968;7.754;2023-04-08T21:57:10;97856.00;;;6.70;93.64
28606;BME280;46498;49.968;7.754;2023-04-08T22:02:13;97855.00;;;6.63;94.68
28606;BME280;46498;49.968;7.754;2023-04-08T22:07:15;97852.00;;;6.54;95.01
28606;BME280;46498;49.968;7.754;2023-04-08T22:12:16;97855.00;;;6.43;95.02
28606;BME280;46498;49.968;7.754;2023-04-08T22:17:17;97865.00;;;6.41;94.92
28606;BME280;46498;49.968;7.754;2023-04-08T22:22:18;97857.00;;;6.41;94.99
28606;BME280;46498;49.968;7.754;2023-04-08T22:27:18;97855.00;;;6.40;94.92
28606;BME280;46498;49.968;7.754;2023-04-08T22:32:19;97855.00;;;6.40;96.01
28606;BME280;46498;49.968;7.754;2023-04-08T22:37:20;97847.00;;;6.38;96.75
28606;BME280;46498;49.968;7.754;2023-04-08T22:42:21;97850.00;;;6.25;97.87
28606;BME280;46498;49.968;7.754;2023-04-08T22:47:22;97835.00;;;6.05;98.81
28606;BME280;46498;49.968;7.754;2023-04-08T22:52:23;97836.00;;;6.11;98.26
28606;BME280;46498;49.968;7.754;2023-04-08T22:57:24;97837.00;;;6.10;98.81
28606;BME280;46498;49.968;7.754;2023-04-08T23:02:25;97833.00;;;6.06;98.75
28606;BME280;46498;49.968;7.754;2023-04-08T23:07:26;97839.00;;;6.12;98.60
28606;BME280;46498;49.968;7.754;2023-04-08T23:12:27;97840.00;;;6.10;98.45
28606;BME280;46498;49.968;7.754;2023-04-08T23:17:28;97839.00;;;6.11;98.69
28606;BME280;46498;49.968;7.754;2023-04-08T23:22:29;97838.00;;;5.98;98.14
28606;BME280;46498;49.968;7.754;2023-04-08T23:27:29;97834.00;;;5.96;99.23
28606;BME280;46498;49.968;7.754;2023-04-08T23:32:32;97841.00;;;5.95;100.00
28606;BME280;46498;49.968;7.754;2023-04-08T23:37:36;97839.00;;;5.86;100.00
28606;BME280;46498;49.968;7.754;2023-04-08T23:42:36;97842.00;;;5.87;100.00
28606;BME280;46498;49.968;7.754;2023-04-08T23:47:37;97840.00;;;5.77;100.00
28606;BME280;46498;49.968;7.754;2023-04-08T23:52:38;97844.00;;;5.87;100.00
28606;BME280;46498;49.968;7.754;2023-04-08T23:57:42;97848.00;;;5.98;100.00
